< Typhoon 196512 1965 Season Typhoon 196514 >
Typhoon 196513 (HARRIET)
General InformationTrack Information on Google Maps || Disaster Info.ResourceGoogle EarthGE AnimationAtom FeedGeoJSON
Detalied Best Track (Time Zone = UTC)
Year Month Day Hour Lat. Long. Pressure (hPa) Wind (kt) Class Image Chart
1965 7 19 06 8.0 152.5 1006 0 2 -- Chart
1965 7 19 12 8.7 150.8 1006 0 2 -- Chart
1965 7 19 18 8.9 149.5 1004 0 2 -- Chart
1965 7 20 00 9.1 148.1 1006 0 2 -- Chart
1965 7 20 06 9.5 146.8 1004 0 2 -- Chart
1965 7 20 12 9.7 145.4 1004 0 2 -- Chart
1965 7 20 18 9.9 144.0 1002 0 2 -- Chart
1965 7 21 00 9.9 143.1 1002 0 2 -- Chart
1965 7 21 06 9.8 142.3 1000 0 2 -- Chart
1965 7 21 12 10.8 141.8 1000 0 2 -- Chart
1965 7 21 18 11.4 142.5 998 0 2 -- Chart
1965 7 22 00 10.9 143.1 998 0 2 -- Chart
1965 7 22 06 12.2 144.0 998 0 2 -- Chart
1965 7 22 12 13.2 144.0 998 0 2 -- Chart
1965 7 22 18 13.2 143.0 996 0 9 -- Chart
1965 7 23 00 13.5 141.5 992 0 9 -- Chart
1965 7 23 06 14.5 139.1 990 0 9 -- Chart
1965 7 23 12 15.5 137.8 990 0 9 -- Chart
1965 7 23 18 16.5 136.4 990 0 9 -- Chart
1965 7 24 00 17.5 134.6 986 0 9 -- Chart
1965 7 24 06 18.5 133.0 982 0 9 -- Chart
1965 7 24 12 19.0 131.8 980 0 9 -- Chart
1965 7 24 18 19.7 129.9 980 0 9 -- Chart
1965 7 25 00 20.3 127.8 975 0 9 -- Chart
1965 7 25 06 21.0 125.7 975 0 9 -- Chart
1965 7 25 12 21.6 124.5 970 0 9 -- Chart
1965 7 25 18 22.0 122.8 970 0 9 -- Chart
1965 7 26 00 22.8 121.5 975 0 9 -- Chart
1965 7 26 06 23.1 119.1 980 0 9 -- Chart
1965 7 26 12 24.4 118.5 980 0 9 -- Chart
1965 7 26 18 25.4 117.5 990 0 9 -- Chart
1965 7 27 00 27.0 117.0 994 0 9 -- Chart
1965 7 27 06 28.6 117.0 996 0 9 -- Chart
1965 7 27 12 30.1 117.5 996 0 9 -- Chart
1965 7 27 18 31.5 118.0 996 0 9 -- Chart
1965 7 28 00 35.0 120.0 998 0 2 -- Chart
1965 7 28 06 36.0 121.0 998 0 2 -- Chart
1965 7 28 12 38.0 123.0 996 0 2 -- Chart
1965 7 28 18 39.0 125.0 996 0 6 -- Chart
1965 7 29 00 40.0 128.0 996 0 6 -- Chart
1965 7 29 06 41.0 131.0 996 0 6 -- Chart
1965 7 29 12 42.0 134.0 996 0 6 -- Chart
1965 7 29 18 43.0 137.0 996 0 6 -- Chart
1965 7 30 00 44.0 141.0 996 0 6 -- Chart
1965 7 30 06 43.5 142.7 996 0 6 -- Chart
1965 7 30 12 44.0 143.0 998 0 6 -- Chart
1965 7 30 18 44.0 143.2 999 0 6 -- Chart
Japan Meteorological Agency Best Track Data | Correction Date : 1989-06-01
< Typhoon 196512 1965 Season Typhoon 196514 >

Help